createdAt,value
2022-11-23T00:00:59.311Z,39.75
2022-11-23T00:06:34.083Z,45.90
2022-11-23T00:11:56.286Z,41.40
2022-11-23T00:17:20.645Z,42.87
2022-11-23T00:22:43.607Z,40.87
2022-11-23T00:28:05.922Z,40.63
2022-11-23T00:33:28.126Z,41.05
2022-11-23T00:38:51.799Z,40.47
2022-11-23T00:44:14.472Z,41.00
2022-11-23T00:49:36.796Z,39.87
2022-11-23T00:54:59.021Z,39.53
2022-11-23T01:00:24.452Z,41.50
2022-11-23T01:05:48.302Z,42.98
2022-11-23T01:11:14.545Z,40.45
2022-11-23T01:16:44.348Z,42.27
2022-11-23T01:27:24.219Z,43.30
2022-11-23T01:32:48.422Z,42.03
2022-11-23T01:38:16.663Z,42.80
2022-11-23T01:43:36.068Z,44.20
2022-11-23T01:49:09.836Z,44.03
2022-11-23T01:54:51.877Z,43.50
2022-11-23T02:00:14.870Z,43.17
2022-11-23T02:05:46.402Z,45.47
2022-11-23T02:11:09.929Z,44.37
2022-11-23T02:16:34.302Z,43.80
2022-11-23T02:21:57.656Z,45.30
2022-11-23T02:27:20.616Z,42.50
2022-11-23T02:32:45.130Z,42.40
2022-11-23T02:38:11.846Z,44.38
2022-11-23T02:55:01.233Z,42.27
2022-11-23T03:00:24.770Z,43.10
2022-11-23T03:05:48.168Z,42.30
2022-11-23T03:11:10.372Z,42.33
2022-11-23T03:16:34.308Z,44.40
2022-11-23T03:21:56.998Z,42.20
2022-11-23T03:27:19.955Z,40.83
2022-11-23T03:32:42.581Z,41.07
2022-11-23T03:38:07.323Z,41.20
2022-11-23T03:43:31.213Z,40.27
2022-11-23T03:48:54.861Z,40.97
2022-11-23T03:54:17.308Z,40.93
2022-11-23T03:59:39.522Z,40.90
2022-11-23T04:05:02.460Z,41.63
2022-11-23T04:10:26.873Z,40.55
2022-11-23T04:15:49.517Z,38.53
2022-11-23T04:21:11.817Z,39.07
2022-11-23T04:26:34.740Z,39.48
2022-11-23T04:31:56.953Z,38.33
2022-11-23T04:37:19.984Z,36.53
2022-11-23T04:42:43.050Z,36.73
2022-11-23T04:48:05.322Z,37.80
2022-11-23T04:53:27.707Z,36.57
2022-11-23T04:58:49.894Z,36.58
2022-11-23T05:04:17.620Z,37.88
2022-11-23T05:09:39.375Z,34.78
2022-11-23T05:15:01.588Z,36.07
2022-11-23T05:20:26.123Z,36.40
2022-11-23T05:25:50.839Z,36.17
2022-11-23T05:31:13.715Z,35.65
2022-11-23T05:36:40.825Z,36.98
2022-11-23T05:41:59.982Z,37.85
2022-11-23T05:47:22.764Z,36.90
2022-11-23T05:52:45.518Z,36.68
2022-11-23T05:58:09.472Z,37.40
2022-11-23T06:03:32.217Z,36.30
2022-11-23T06:08:54.523Z,36.95
2022-11-23T06:14:17.432Z,37.67
2022-11-23T06:19:42.036Z,36.58
2022-11-23T06:25:04.215Z,37.88
2022-11-23T06:30:28.313Z,38.25
2022-11-23T06:36:01.634Z,35.10
2022-11-23T06:41:29.513Z,36.70
2022-11-23T06:46:50.379Z,36.58
2022-11-23T06:52:14.069Z,38.67
2022-11-23T06:57:36.296Z,36.45
2022-11-23T07:03:06.008Z,35.53
2022-11-23T07:08:30.817Z,34.25
2022-11-23T07:13:56.015Z,36.08
2022-11-23T07:19:20.329Z,37.45
2022-11-23T07:24:46.745Z,37.90
2022-11-23T07:30:07.773Z,36.15
2022-11-23T07:35:33.506Z,37.60
2022-11-23T07:40:56.672Z,37.03
2022-11-23T07:46:21.358Z,37.20
2022-11-23T07:51:44.296Z,37.38
2022-11-23T07:57:07.983Z,37.33
2022-11-23T08:02:33.687Z,37.75
2022-11-23T08:07:57.620Z,40.23
2022-11-23T08:13:21.553Z,38.73
2022-11-23T08:18:45.043Z,38.03
2022-11-23T08:24:09.772Z,39.67
2022-11-23T08:29:34.174Z,41.33
2022-11-23T08:34:58.892Z,40.97
2022-11-23T08:40:25.813Z,39.43
2022-11-23T08:45:50.463Z,38.67
2022-11-23T08:51:14.880Z,40.60
2022-11-23T08:56:37.844Z,37.17
2022-11-23T09:02:01.010Z,38.42
2022-11-23T09:07:23.432Z,38.37
2022-11-23T09:12:45.992Z,39.23
2022-11-23T09:18:09.474Z,38.87
2022-11-23T09:23:32.112Z,36.25
2022-11-23T09:28:54.307Z,37.78
2022-11-23T09:34:19.049Z,37.40
2022-11-23T09:39:41.769Z,36.27
2022-11-23T09:45:31.331Z,35.52
2022-11-23T09:51:00.519Z,36.17
2022-11-23T09:56:29.210Z,32.93
2022-11-23T10:01:51.522Z,34.87
2022-11-23T10:07:21.195Z,33.33
2022-11-23T10:13:27.444Z,29.97
2022-11-23T10:19:12.403Z,27.40
2022-11-23T10:24:51.078Z,29.07
2022-11-23T10:30:16.057Z,31.60
2022-11-23T10:35:47.640Z,28.77
2022-11-23T10:46:57.357Z,30.77
2022-11-23T10:52:33.805Z,30.33
2022-11-23T10:58:04.947Z,30.10
2022-11-23T11:03:37.379Z,29.60
2022-11-23T11:09:16.265Z,29.55
2022-11-23T11:14:43.383Z,30.57
2022-11-23T11:20:04.472Z,28.13
2022-11-23T11:25:45.364Z,28.73
2022-11-23T11:31:30.154Z,28.50
2022-11-23T11:37:09.203Z,28.87
2022-11-23T11:42:53.570Z,28.75
2022-11-23T11:48:29.583Z,28.57
2022-11-23T11:53:59.912Z,30.40
2022-11-23T12:05:18.284Z,30.27
2022-11-23T12:10:51.026Z,29.73
2022-11-23T12:16:36.954Z,30.47
2022-11-23T12:22:32.898Z,29.87
2022-11-23T12:28:21.157Z,29.20
2022-11-23T12:34:13.698Z,28.63
2022-11-23T12:40:17.127Z,28.83
2022-11-23T12:46:09.958Z,30.13
2022-11-23T12:51:55.668Z,34.13
2022-11-23T12:57:38.901Z,28.77
2022-11-23T13:03:48.000Z,30.52
2022-11-23T13:09:23.818Z,31.70
2022-11-23T13:15:26.035Z,34.40
2022-11-23T13:21:12.421Z,32.53
2022-11-23T13:26:40.419Z,30.77
2022-11-23T13:32:06.305Z,28.80
2022-11-23T13:37:28.743Z,26.17
2022-11-23T13:42:53.500Z,27.73
2022-11-23T13:54:03.539Z,25.80
2022-11-23T13:59:39.008Z,26.95
2022-11-23T14:05:07.236Z,28.00
2022-11-23T14:10:38.063Z,26.30
2022-11-23T14:16:08.813Z,27.45
2022-11-23T14:21:51.202Z,28.53
2022-11-23T14:27:47.575Z,28.67
2022-11-23T14:33:18.523Z,25.77
2022-11-23T14:39:08.115Z,26.43
2022-11-23T14:44:38.618Z,27.82
2022-11-23T14:50:14.637Z,27.47
2022-11-23T14:55:43.957Z,29.02
2022-11-23T15:01:10.117Z,29.03
2022-11-23T15:06:44.070Z,29.05
2022-11-23T15:12:17.540Z,28.52
2022-11-23T15:17:41.306Z,28.00
2022-11-23T15:23:04.152Z,29.02
2022-11-23T15:28:34.921Z,29.85
2022-11-23T15:34:05.979Z,27.77
2022-11-23T15:39:38.052Z,27.73
2022-11-23T15:45:00.289Z,27.75
2022-11-23T15:50:29.867Z,29.60
2022-11-23T15:55:51.043Z,28.62
2022-11-23T16:01:22.417Z,28.40
2022-11-23T16:06:56.255Z,29.77
2022-11-23T16:12:30.650Z,31.05
2022-11-23T16:17:54.727Z,31.02
2022-11-23T16:23:18.680Z,33.78
2022-11-23T16:28:44.372Z,34.70
2022-11-23T16:34:06.748Z,31.70
2022-11-23T16:39:30.074Z,35.75
2022-11-23T16:44:52.333Z,36.08
2022-11-23T16:50:16.593Z,36.00
2022-11-23T16:55:42.268Z,33.70
2022-11-23T17:01:03.684Z,38.70
2022-11-23T17:06:27.505Z,36.63
2022-11-23T17:11:54.238Z,36.10
2022-11-23T17:17:17.721Z,36.35
2022-11-23T17:22:39.950Z,36.47
2022-11-23T17:28:03.687Z,37.75
2022-11-23T17:33:27.817Z,38.45
2022-11-23T17:38:50.445Z,39.40
2022-11-23T17:44:14.418Z,42.45
2022-11-23T17:49:38.085Z,43.45
2022-11-23T17:55:00.280Z,40.28
2022-11-23T18:00:33.134Z,41.28
2022-11-23T18:05:55.816Z,41.58
2022-11-23T18:11:18.671Z,41.13
2022-11-23T18:16:41.938Z,40.08
2022-11-23T18:22:04.164Z,39.73
2022-11-23T18:27:29.754Z,39.03
2022-11-23T18:32:54.476Z,38.50
2022-11-23T18:38:19.162Z,37.63
2022-11-23T18:43:42.080Z,38.75
2022-11-23T18:49:05.940Z,37.40
2022-11-23T18:54:30.136Z,36.03
2022-11-23T18:59:58.814Z,39.63
2022-11-23T19:05:20.570Z,47.70
2022-11-23T19:10:44.804Z,45.75
2022-11-23T19:16:10.935Z,48.53
2022-11-23T19:21:36.881Z,50.85
2022-11-23T19:26:59.197Z,47.57
2022-11-23T19:32:21.511Z,49.95
2022-11-23T19:37:43.802Z,48.17
2022-11-23T19:43:06.646Z,46.83
2022-11-23T19:48:28.938Z,46.23
2022-11-23T19:53:55.455Z,47.15
2022-11-23T19:59:20.088Z,49.03
2022-11-23T20:04:44.560Z,47.55
2022-11-23T20:10:07.037Z,48.05
2022-11-23T20:15:29.455Z,45.70
2022-11-23T20:20:55.937Z,45.78
2022-11-23T20:26:21.562Z,45.57
2022-11-23T20:31:47.146Z,45.65
2022-11-23T20:37:09.562Z,44.25
2022-11-23T20:42:31.861Z,39.78
2022-11-23T20:47:54.930Z,51.45
2022-11-23T20:53:21.151Z,38.75
2022-11-23T20:58:44.984Z,40.70
2022-11-23T21:04:13.907Z,40.80
2022-11-23T21:09:38.305Z,39.50
2022-11-23T21:15:01.406Z,38.10
2022-11-23T21:20:23.796Z,40.05
2022-11-23T21:25:46.964Z,41.37
2022-11-23T21:31:15.144Z,38.23
2022-11-23T21:36:41.579Z,37.20
2022-11-23T21:42:07.789Z,41.25
2022-11-23T21:47:32.024Z,40.52
2022-11-23T21:52:54.309Z,39.23
2022-11-23T21:58:17.968Z,40.23
2022-11-23T22:09:39.360Z,37.60
2022-11-23T22:15:02.186Z,38.78
2022-11-23T22:20:26.926Z,39.98
2022-11-23T22:25:52.262Z,39.73
2022-11-23T22:31:16.151Z,37.23
2022-11-23T22:36:40.408Z,38.63
2022-11-23T22:42:05.213Z,38.08
2022-11-23T22:47:27.968Z,38.13
2022-11-23T22:52:52.183Z,38.17
2022-11-23T22:58:14.954Z,37.65
2022-11-23T23:03:38.006Z,38.23
2022-11-23T23:09:03.351Z,38.90
2022-11-23T23:14:26.270Z,35.55
2022-11-23T23:19:49.956Z,36.00
2022-11-23T23:25:14.631Z,34.83
2022-11-23T23:30:37.641Z,36.98
2022-11-23T23:36:00.425Z,35.60
2022-11-23T23:41:24.999Z,39.23
2022-11-23T23:46:47.811Z,36.95
2022-11-23T23:52:11.456Z,37.53
2022-11-23T23:57:35.978Z,38.00
